sensor_id;sensor_type;location;lat;lon;timestamp;P1;durP1;ratioP1;P2;durP2;ratioP2
1122;SDS011;548;48.778;9.252;2023-03-04T10:11:36;29.53;;;24.50;;
1122;SDS011;548;48.778;9.252;2023-03-04T10:17:04;27.37;;;24.03;;
1122;SDS011;548;48.778;9.252;2023-03-04T10:19:39;26.80;;;22.97;;
1122;SDS011;548;48.778;9.252;2023-03-04T10:22:18;26.97;;;24.27;;
1122;SDS011;548;48.778;9.252;2023-03-04T10:24:48;27.90;;;25.00;;
1122;SDS011;548;48.778;9.252;2023-03-04T10:27:18;32.60;;;24.93;;
1122;SDS011;548;48.778;9.252;2023-03-04T10:29:45;28.07;;;25.07;;
1122;SDS011;548;48.778;9.252;2023-03-04T10:32:12;27.07;;;24.10;;
1122;SDS011;548;48.778;9.252;2023-03-04T10:34:41;26.97;;;23.40;;
1122;SDS011;548;48.778;9.252;2023-03-04T10:37:08;30.80;;;24.40;;
1122;SDS011;548;48.778;9.252;2023-03-04T10:39:37;30.80;;;27.60;;
1122;SDS011;548;48.778;9.252;2023-03-04T10:42:05;29.57;;;26.50;;
1122;SDS011;548;48.778;9.252;2023-03-04T10:44:51;28.10;;;25.20;;
1122;SDS011;548;48.778;9.252;2023-03-04T10:47:22;29.43;;;25.70;;
1122;SDS011;548;48.778;9.252;2023-03-04T10:49:50;31.93;;;26.77;;
1122;SDS011;548;48.778;9.252;2023-03-04T10:52:21;29.53;;;25.53;;
1122;SDS011;548;48.778;9.252;2023-03-04T10:54:54;29.60;;;26.10;;
1122;SDS011;548;48.778;9.252;2023-03-04T10:57:23;29.87;;;26.43;;
1122;SDS011;548;48.778;9.252;2023-03-04T10:59:59;35.30;;;27.27;;
1122;SDS011;548;48.778;9.252;2023-03-04T11:02:28;30.00;;;25.10;;
1122;SDS011;548;48.778;9.252;2023-03-04T11:04:56;30.60;;;26.97;;
1122;SDS011;548;48.778;9.252;2023-03-04T11:07:41;35.40;;;29.47;;
1122;SDS011;548;48.778;9.252;2023-03-04T11:10:09;29.97;;;26.80;;
1122;SDS011;548;48.778;9.252;2023-03-04T11:12:40;34.03;;;29.13;;
1122;SDS011;548;48.778;9.252;2023-03-04T11:15:17;32.40;;;27.60;;
1122;SDS011;548;48.778;9.252;2023-03-04T11:17:49;32.00;;;26.50;;
1122;SDS011;548;48.778;9.252;2023-03-04T11:20:23;34.03;;;29.50;;
1122;SDS011;548;48.778;9.252;2023-03-04T11:22:54;35.87;;;32.00;;
1122;SDS011;548;48.778;9.252;2023-03-04T11:25:25;38.10;;;33.00;;
1122;SDS011;548;48.778;9.252;2023-03-04T11:27:54;34.27;;;30.30;;
1122;SDS011;548;48.778;9.252;2023-03-04T11:30:28;38.30;;;31.50;;
1122;SDS011;548;48.778;9.252;2023-03-04T11:33:02;38.90;;;31.47;;
1122;SDS011;548;48.778;9.252;2023-03-04T11:35:47;35.87;;;31.60;;
1122;SDS011;548;48.778;9.252;2023-03-04T11:38:19;36.33;;;31.13;;
1122;SDS011;548;48.778;9.252;2023-03-04T11:40:48;35.10;;;31.40;;
1122;SDS011;548;48.778;9.252;2023-03-04T11:43:20;39.70;;;31.53;;
1122;SDS011;548;48.778;9.252;2023-03-04T11:46:07;38.43;;;31.63;;
1122;SDS011;548;48.778;9.252;2023-03-04T11:48:45;40.10;;;31.80;;
1122;SDS011;548;48.778;9.252;2023-03-04T11:51:20;39.90;;;31.23;;
1122;SDS011;548;48.778;9.252;2023-03-04T11:53:54;40.27;;;32.63;;
1122;SDS011;548;48.778;9.252;2023-03-04T11:56:34;41.03;;;31.67;;
1122;SDS011;548;48.778;9.252;2023-03-04T11:59:11;33.40;;;29.30;;
1122;SDS011;548;48.778;9.252;2023-03-04T12:01:54;40.73;;;30.20;;
1122;SDS011;548;48.778;9.252;2023-03-04T12:04:39;40.13;;;32.70;;
1122;SDS011;548;48.778;9.252;2023-03-04T12:07:23;43.30;;;35.67;;
1122;SDS011;548;48.778;9.252;2023-03-04T12:10:12;45.07;;;33.53;;
1122;SDS011;548;48.778;9.252;2023-03-04T12:12:50;43.07;;;33.20;;
1122;SDS011;548;48.778;9.252;2023-03-04T12:15:31;43.23;;;35.60;;
1122;SDS011;548;48.778;9.252;2023-03-04T12:18:14;47.10;;;35.27;;
1122;SDS011;548;48.778;9.252;2023-03-04T12:21:00;46.33;;;35.60;;
1122;SDS011;548;48.778;9.252;2023-03-04T12:23:44;47.77;;;36.43;;
1122;SDS011;548;48.778;9.252;2023-03-04T12:26:32;51.40;;;36.87;;
1122;SDS011;548;48.778;9.252;2023-03-04T12:29:04;42.77;;;33.17;;
1122;SDS011;548;48.778;9.252;2023-03-04T12:31:37;45.13;;;34.00;;
1122;SDS011;548;48.778;9.252;2023-03-04T12:34:25;48.17;;;35.33;;
1122;SDS011;548;48.778;9.252;2023-03-04T12:37:03;45.93;;;35.60;;
1122;SDS011;548;48.778;9.252;2023-03-04T12:39:50;44.67;;;34.10;;
1122;SDS011;548;48.778;9.252;2023-03-04T12:42:34;43.63;;;33.80;;
1122;SDS011;548;48.778;9.252;2023-03-04T12:45:07;42.53;;;33.83;;
1122;SDS011;548;48.778;9.252;2023-03-04T12:47:45;44.80;;;35.03;;
1122;SDS011;548;48.778;9.252;2023-03-04T12:50:25;50.90;;;35.73;;
1122;SDS011;548;48.778;9.252;2023-03-04T12:53:06;45.50;;;36.50;;
1122;SDS011;548;48.778;9.252;2023-03-04T12:55:39;42.57;;;35.40;;
1122;SDS011;548;48.778;9.252;2023-03-04T12:58:12;42.40;;;34.97;;
1122;SDS011;548;48.778;9.252;2023-03-04T13:00:44;50.90;;;37.20;;
1122;SDS011;548;48.778;9.252;2023-03-04T13:03:17;48.70;;;36.07;;
1122;SDS011;548;48.778;9.252;2023-03-04T13:05:56;49.10;;;36.13;;
1122;SDS011;548;48.778;9.252;2023-03-04T13:08:36;47.93;;;35.13;;
1122;SDS011;548;48.778;9.252;2023-03-04T13:11:37;51.30;;;35.67;;
1122;SDS011;548;48.778;9.252;2023-03-04T13:14:27;44.17;;;33.17;;
1122;SDS011;548;48.778;9.252;2023-03-04T13:16:55;53.87;;;38.13;;
1122;SDS011;548;48.778;9.252;2023-03-04T13:19:41;45.90;;;35.70;;
1122;SDS011;548;48.778;9.252;2023-03-04T13:22:27;49.37;;;36.73;;
1122;SDS011;548;48.778;9.252;2023-03-04T13:24:58;48.33;;;35.40;;
1122;SDS011;548;48.778;9.252;2023-03-04T13:27:48;47.93;;;36.03;;
1122;SDS011;548;48.778;9.252;2023-03-04T13:33:50;55.53;;;35.03;;
1122;SDS011;548;48.778;9.252;2023-03-04T13:39:28;43.57;;;33.20;;
1122;SDS011;548;48.778;9.252;2023-03-04T13:41:59;42.03;;;34.73;;
1122;SDS011;548;48.778;9.252;2023-03-04T13:44:32;44.03;;;31.20;;
1122;SDS011;548;48.778;9.252;2023-03-04T13:47:14;37.10;;;30.53;;
1122;SDS011;548;48.778;9.252;2023-03-04T13:49:43;41.33;;;30.67;;
1122;SDS011;548;48.778;9.252;2023-03-04T13:58:12;37.50;;;30.17;;
1122;SDS011;548;48.778;9.252;2023-03-04T14:00:46;38.50;;;30.10;;
1122;SDS011;548;48.778;9.252;2023-03-04T14:03:19;38.47;;;28.87;;
1122;SDS011;548;48.778;9.252;2023-03-04T14:08:40;35.90;;;26.47;;
1122;SDS011;548;48.778;9.252;2023-03-04T14:11:11;33.33;;;26.70;;
1122;SDS011;548;48.778;9.252;2023-03-04T14:13:39;35.50;;;25.07;;
1122;SDS011;548;48.778;9.252;2023-03-04T14:16:06;29.20;;;24.87;;
1122;SDS011;548;48.778;9.252;2023-03-04T14:18:33;24.70;;;22.00;;
1122;SDS011;548;48.778;9.252;2023-03-04T14:21:00;25.07;;;22.33;;
1122;SDS011;548;48.778;9.252;2023-03-04T14:23:28;30.97;;;23.80;;
1122;SDS011;548;48.778;9.252;2023-03-04T14:26:03;24.70;;;22.00;;
1122;SDS011;548;48.778;9.252;2023-03-04T14:28:33;29.27;;;21.17;;
1122;SDS011;548;48.778;9.252;2023-03-04T14:31:09;26.00;;;21.50;;
1122;SDS011;548;48.778;9.252;2023-03-04T14:33:43;38.60;;;23.63;;
1122;SDS011;548;48.778;9.252;2023-03-04T14:36:15;26.97;;;22.60;;
1122;SDS011;548;48.778;9.252;2023-03-04T14:38:46;35.50;;;23.57;;
1122;SDS011;548;48.778;9.252;2023-03-04T14:41:17;27.33;;;21.63;;
1122;SDS011;548;48.778;9.252;2023-03-04T14:43:51;25.73;;;22.30;;
1122;SDS011;548;48.778;9.252;2023-03-04T14:46:22;27.67;;;24.37;;
1122;SDS011;548;48.778;9.252;2023-03-04T14:48:55;30.10;;;23.50;;
1122;SDS011;548;48.778;9.252;2023-03-04T14:51:35;35.60;;;26.67;;
1122;SDS011;548;48.778;9.252;2023-03-04T14:54:21;31.97;;;24.13;;
1122;SDS011;548;48.778;9.252;2023-03-04T14:56:51;31.85;;;25.92;;
1122;SDS011;548;48.778;9.252;2023-03-04T14:59:27;29.60;;;24.67;;
1122;SDS011;548;48.778;9.252;2023-03-04T15:02:07;30.93;;;23.77;;
1122;SDS011;548;48.778;9.252;2023-03-04T15:04:43;33.10;;;25.90;;
1122;SDS011;548;48.778;9.252;2023-03-04T15:07:14;32.20;;;27.07;;
1122;SDS011;548;48.778;9.252;2023-03-04T15:09:48;29.87;;;26.30;;
1122;SDS011;548;48.778;9.252;2023-03-04T15:12:20;35.43;;;26.37;;
1122;SDS011;548;48.778;9.252;2023-03-04T15:14:51;31.40;;;24.73;;
1122;SDS011;548;48.778;9.252;2023-03-04T15:17:23;31.47;;;23.50;;
1122;SDS011;548;48.778;9.252;2023-03-04T15:19:58;28.57;;;20.87;;
1122;SDS011;548;48.778;9.252;2023-03-04T15:22:26;38.97;;;24.30;;
1122;SDS011;548;48.778;9.252;2023-03-04T15:24:53;22.67;;;20.27;;
1122;SDS011;548;48.778;9.252;2023-03-04T15:27:20;31.73;;;23.37;;
1122;SDS011;548;48.778;9.252;2023-03-04T15:29:50;29.20;;;23.03;;
1122;SDS011;548;48.778;9.252;2023-03-04T15:32:20;34.80;;;24.07;;
1122;SDS011;548;48.778;9.252;2023-03-04T15:34:47;29.57;;;24.03;;
1122;SDS011;548;48.778;9.252;2023-03-04T15:37:16;29.03;;;23.67;;
1122;SDS011;548;48.778;9.252;2023-03-04T15:39:45;27.10;;;23.60;;
1122;SDS011;548;48.778;9.252;2023-03-04T15:42:12;28.20;;;22.07;;
1122;SDS011;548;48.778;9.252;2023-03-04T15:44:39;37.60;;;25.53;;
1122;SDS011;548;48.778;9.252;2023-03-04T15:47:08;31.87;;;26.30;;
1122;SDS011;548;48.778;9.252;2023-03-04T15:49:37;31.20;;;27.70;;
1122;SDS011;548;48.778;9.252;2023-03-04T15:52:05;32.87;;;25.10;;
1122;SDS011;548;48.778;9.252;2023-03-04T15:54:32;32.77;;;26.50;;
1122;SDS011;548;48.778;9.252;2023-03-04T15:56:59;29.87;;;23.80;;
1122;SDS011;548;48.778;9.252;2023-03-04T15:59:34;31.77;;;24.70;;
1122;SDS011;548;48.778;9.252;2023-03-04T16:02:00;35.50;;;24.57;;
1122;SDS011;548;48.778;9.252;2023-03-04T16:04:28;27.47;;;24.47;;
1122;SDS011;548;48.778;9.252;2023-03-04T16:06:55;34.63;;;23.20;;
1122;SDS011;548;48.778;9.252;2023-03-04T16:09:24;35.00;;;23.87;;
1122;SDS011;548;48.778;9.252;2023-03-04T16:11:51;31.13;;;24.70;;
1122;SDS011;548;48.778;9.252;2023-03-04T16:14:20;31.73;;;25.90;;
1122;SDS011;548;48.778;9.252;2023-03-04T16:16:47;30.70;;;25.20;;
1122;SDS011;548;48.778;9.252;2023-03-04T16:19:17;35.20;;;26.27;;
1122;SDS011;548;48.778;9.252;2023-03-04T16:21:45;28.27;;;24.83;;
1122;SDS011;548;48.778;9.252;2023-03-04T16:24:14;34.23;;;25.17;;
1122;SDS011;548;48.778;9.252;2023-03-04T16:26:42;34.17;;;26.60;;
1122;SDS011;548;48.778;9.252;2023-03-04T16:29:09;31.90;;;25.10;;
1122;SDS011;548;48.778;9.252;2023-03-04T16:31:36;33.33;;;24.83;;
1122;SDS011;548;48.778;9.252;2023-03-04T16:34:03;30.13;;;25.47;;
1122;SDS011;548;48.778;9.252;2023-03-04T16:36:30;29.60;;;25.37;;
1122;SDS011;548;48.778;9.252;2023-03-04T16:38:59;30.67;;;26.73;;
1122;SDS011;548;48.778;9.252;2023-03-04T16:41:33;38.07;;;28.03;;
1122;SDS011;548;48.778;9.252;2023-03-04T16:44:01;33.93;;;25.27;;
1122;SDS011;548;48.778;9.252;2023-03-04T16:46:28;33.70;;;26.13;;
1122;SDS011;548;48.778;9.252;2023-03-04T16:48:54;38.57;;;27.93;;
1122;SDS011;548;48.778;9.252;2023-03-04T16:51:21;36.50;;;25.03;;
1122;SDS011;548;48.778;9.252;2023-03-04T16:53:49;32.73;;;26.30;;
1122;SDS011;548;48.778;9.252;2023-03-04T16:56:20;31.03;;;25.23;;
1122;SDS011;548;48.778;9.252;2023-03-04T16:58:47;26.97;;;24.13;;
1122;SDS011;548;48.778;9.252;2023-03-04T17:01:14;38.17;;;25.10;;
1122;SDS011;548;48.778;9.252;2023-03-04T17:03:42;31.87;;;25.60;;
1122;SDS011;548;48.778;9.252;2023-03-04T17:06:09;27.23;;;24.30;;
1122;SDS011;548;48.778;9.252;2023-03-04T17:08:36;37.00;;;25.87;;
1122;SDS011;548;48.778;9.252;2023-03-04T17:11:03;29.30;;;22.67;;
1122;SDS011;548;48.778;9.252;2023-03-04T17:13:31;29.60;;;23.17;;
1122;SDS011;548;48.778;9.252;2023-03-04T17:15:59;37.63;;;24.60;;
1122;SDS011;548;48.778;9.252;2023-03-04T17:18:26;35.03;;;24.47;;
1122;SDS011;548;48.778;9.252;2023-03-04T17:20:53;26.80;;;23.50;;
1122;SDS011;548;48.778;9.252;2023-03-04T17:23:26;33.07;;;22.50;;
1122;SDS011;548;48.778;9.252;2023-03-04T17:25:54;28.53;;;23.23;;
1122;SDS011;548;48.778;9.252;2023-03-04T17:28:21;26.90;;;22.53;;
1122;SDS011;548;48.778;9.252;2023-03-04T17:30:49;28.67;;;23.80;;
1122;SDS011;548;48.778;9.252;2023-03-04T17:33:16;29.93;;;23.67;;
1122;SDS011;548;48.778;9.252;2023-03-04T17:35:43;33.77;;;24.67;;
1122;SDS011;548;48.778;9.252;2023-03-04T17:38:10;35.97;;;23.97;;
1122;SDS011;548;48.778;9.252;2023-03-04T17:40:37;34.57;;;22.97;;
1122;SDS011;548;48.778;9.252;2023-03-04T17:43:04;35.10;;;24.80;;
1122;SDS011;548;48.778;9.252;2023-03-04T17:45:35;38.47;;;26.20;;
1122;SDS011;548;48.778;9.252;2023-03-04T17:48:04;40.07;;;28.30;;
1122;SDS011;548;48.778;9.252;2023-03-04T17:50:31;36.00;;;26.17;;
1122;SDS011;548;48.778;9.252;2023-03-04T17:52:58;34.27;;;26.00;;
1122;SDS011;548;48.778;9.252;2023-03-04T17:55:25;33.73;;;25.90;;
1122;SDS011;548;48.778;9.252;2023-03-04T17:57:51;41.00;;;26.73;;
